Time;durP1;ratioP1;P1;durP2;ratioP2;P2;SDS_P1;SDS_P2;PMS_P1;PMS_P2;Temp;Humidity;BMP_temperature;BMP_pressure;BME280_temperature;BME280_humidity;BME280_pressure;Samples;Min_cycle;Max_cycle;Signal;HPM_P1;HPM_P2
2022/02/16 00:02:24;;;;;;;1.48;1.10;;;7.60;72.10;;;;;;4982883;28;20065;-70
2022/02/16 00:04:50;;;;;;;1.77;1.02;;;7.60;71.80;;;;;;4982465;28;20030;-70
2022/02/16 00:07:15;;;;;;;5.32;1.30;;;7.50;72.30;;;;;;4983654;28;20034;-70
2022/02/16 00:09:41;;;;;;;2.22;0.80;;;7.50;72.50;;;;;;4984515;28;20044;-70
2022/02/16 00:12:07;;;;;;;3.28;0.95;;;7.60;73.50;;;;;;4982682;28;20030;-70
2022/02/16 00:14:33;;;;;;;4.32;1.15;;;7.60;73.90;;;;;;4980503;28;20057;-70
2022/02/16 00:16:59;;;;;;;2.58;1.10;;;7.60;75.00;;;;;;4987033;28;20023;-70
2022/02/16 00:19:25;;;;;;;2.38;1.10;;;7.60;75.40;;;;;;4986546;28;20478;-70
2022/02/16 00:21:51;;;;;;;2.60;1.00;;;7.60;74.80;;;;;;4986604;28;20030;-70
2022/02/16 00:24:17;;;;;;;4.20;1.10;;;7.50;75.70;;;;;;4985734;28;20054;-70
2022/02/16 00:26:43;;;;;;;3.13;1.40;;;7.40;77.20;;;;;;4985133;28;20042;-70
2022/02/16 00:29:13;;;;;;;5.85;1.20;;;7.30;76.70;;;;;;4984893;28;20142;-70
2022/02/16 00:31:40;;;;;;;6.00;1.38;;;7.30;77.50;;;;;;4985983;28;20034;-70
2022/02/16 00:34:07;;;;;;;2.55;0.95;;;7.30;78.10;;;;;;4985972;28;20743;-70
2022/02/16 00:36:33;;;;;;;3.42;1.40;;;7.20;78.40;;;;;;4986149;28;20030;-71
2022/02/16 00:39:00;;;;;;;3.90;1.60;;;7.30;78.50;;;;;;4986151;28;20510;-71
2022/02/16 00:41:28;;;;;;;2.72;1.13;;;7.10;79.00;;;;;;4985784;28;20510;-70
2022/02/16 00:43:54;;;;;;;2.08;0.93;;;7.10;79.90;;;;;;4984951;28;20038;-70
2022/02/16 00:46:19;;;;;;;2.35;1.50;;;7.10;79.50;;;;;;4984694;28;20026;-70
2022/02/16 00:48:45;;;;;;;2.60;1.50;;;7.00;80.70;;;;;;4986293;28;20395;-70
2022/02/16 00:51:12;;;;;;;3.15;1.58;;;7.10;81.40;;;;;;4988044;28;20097;-76
2022/02/16 00:53:38;;;;;;;3.13;1.40;;;7.00;81.80;;;;;;5015492;28;20033;-76
2022/02/16 00:56:04;;;;;;;2.05;1.40;;;7.00;83.00;;;;;;4998548;28;20530;-75
2022/02/16 00:58:30;;;;;;;3.33;1.23;;;7.00;83.30;;;;;;4984322;28;20141;-75
2022/02/16 01:00:57;;;;;;;6.10;1.17;;;7.00;83.90;;;;;;4985923;28;20486;-75
2022/02/16 01:03:23;;;;;;;4.68;1.77;;;6.80;83.80;;;;;;4985915;28;20034;-75
2022/02/16 01:05:50;;;;;;;4.10;1.38;;;6.80;85.20;;;;;;4984241;28;20042;-75
2022/02/16 01:08:15;;;;;;;3.42;1.50;;;6.70;85.90;;;;;;5000965;28;20033;-76
2022/02/16 01:10:42;;;;;;;3.10;1.50;;;6.60;86.90;;;;;;4986000;28;20475;-75
2022/02/16 01:13:09;;;;;;;1.50;1.20;;;6.50;87.70;;;;;;4984437;28;20069;-75
2022/02/16 01:15:37;;;;;;;2.50;1.85;;;6.40;88.80;;;;;;4982559;28;20097;-75
2022/02/16 01:18:03;;;;;;;2.20;1.48;;;6.40;89.10;;;;;;4984558;28;20534;-75
2022/02/16 01:20:34;;;;;;;3.15;1.90;;;6.40;89.00;;;;;;4998094;28;20708;-75
2022/02/16 01:23:07;;;;;;;5.80;1.75;;;6.40;90.00;;;;;;4997736;28;20433;-75
2022/02/16 01:25:33;;;;;;;2.95;1.42;;;6.40;89.30;;;;;;4984916;28;20049;-75
2022/02/16 01:28:05;;;;;;;3.75;1.88;;;6.40;90.10;;;;;;4984648;28;20577;-75
2022/02/16 01:30:35;;;;;;;4.30;2.08;;;6.30;90.10;;;;;;4984063;28;20034;-76
2022/02/16 01:33:05;;;;;;;3.90;2.47;;;6.10;90.50;;;;;;4983074;28;20143;-75
2022/02/16 01:35:42;;;;;;;7.53;2.17;;;6.10;90.80;;;;;;4984061;28;20487;-75
2022/02/16 01:38:08;;;;;;;7.22;2.00;;;6.10;90.80;;;;;;4984537;28;20034;-75
2022/02/16 01:40:35;;;;;;;4.55;1.77;;;6.10;91.10;;;;;;4985404;28;20479;-77
2022/02/16 01:43:01;;;;;;;3.42;1.98;;;6.30;91.00;;;;;;5000698;28;20026;-75
2022/02/16 01:45:41;;;;;;;5.97;2.20;;;6.30;91.00;;;;;;4998008;28;20092;-75
2022/02/16 01:48:07;;;;;;;5.07;2.10;;;6.40;91.00;;;;;;5000373;28;20034;-74
2022/02/16 01:50:33;;;;;;;5.78;2.47;;;6.50;90.70;;;;;;4994579;28;20088;-75
2022/02/16 01:52:59;;;;;;;5.18;2.00;;;6.40;90.60;;;;;;4985541;28;20089;-75
2022/02/16 01:55:29;;;;;;;5.20;2.53;;;6.50;90.90;;;;;;4991419;28;20503;-75
2022/02/16 01:57:57;;;;;;;4.72;2.03;;;6.50;90.90;;;;;;4990263;28;20105;-76
2022/02/16 02:00:40;;;;;;;5.50;1.80;;;6.40;91.10;;;;;;4999903;28;20034;-76
2022/02/16 02:03:06;;;;;;;3.30;2.00;;;6.40;90.90;;;;;;4983368;28;20077;-75
2022/02/16 02:05:40;;;;;;;5.50;2.20;;;6.40;91.10;;;;;;4992422;28;20409;-75
2022/02/16 02:08:06;;;;;;;5.75;2.47;;;6.40;90.90;;;;;;4993620;28;20034;-74
2022/02/16 02:10:33;;;;;;;4.28;2.00;;;6.40;90.80;;;;;;4980141;28;20035;-75
2022/02/16 02:12:59;;;;;;;2.42;1.92;;;6.40;91.00;;;;;;4991822;28;20033;-75
2022/02/16 02:15:37;;;;;;;3.15;1.85;;;6.40;90.90;;;;;;5008788;28;20057;-76
2022/02/16 02:18:17;;;;;;;4.13;2.13;;;6.50;90.80;;;;;;4999850;28;20026;-74
2022/02/16 02:20:44;;;;;;;3.53;2.10;;;6.40;90.90;;;;;;4985535;28;20046;-75
2022/02/16 02:23:12;;;;;;;3.65;1.75;;;6.40;91.10;;;;;;4992605;28;20061;-75
2022/02/16 02:25:50;;;;;;;6.00;2.30;;;6.40;90.90;;;;;;4998936;28;20057;-75
2022/02/16 02:28:18;;;;;;;4.80;2.10;;;6.50;90.90;;;;;;4979898;28;20665;-74
2022/02/16 02:30:47;;;;;;;4.38;2.33;;;6.50;90.60;;;;;;4998799;28;20093;-75
2022/02/16 02:33:14;;;;;;;5.97;2.20;;;6.60;90.70;;;;;;4999173;28;20034;-75
2022/02/16 02:35:40;;;;;;;6.43;2.40;;;6.60;90.50;;;;;;4984660;28;20046;-75
2022/02/16 02:38:06;;;;;;;5.50;2.40;;;6.60;90.70;;;;;;4982695;28;20015;-75
2022/02/16 02:40:32;;;;;;;4.47;2.45;;;6.60;90.50;;;;;;4982340;28;20030;-75
2022/02/16 02:42:58;;;;;;;5.32;1.98;;;6.70;90.50;;;;;;4984397;28;20085;-76
2022/02/16 02:45:28;;;;;;;5.50;2.22;;;6.70;90.50;;;;;;4982061;28;20103;-75
2022/02/16 02:47:55;;;;;;;5.65;2.53;;;6.70;90.60;;;;;;4988894;28;20071;-74
2022/02/16 02:50:21;;;;;;;5.90;2.35;;;6.60;90.50;;;;;;4977924;28;20748;-75
2022/02/16 02:52:47;;;;;;;9.07;2.40;;;6.60;90.60;;;;;;4983516;28;20034;-75
2022/02/16 02:55:14;;;;;;;5.30;2.05;;;6.60;90.40;;;;;;4989239;28;20765;-75
2022/02/16 02:57:43;;;;;;;5.38;2.65;;;6.70;90.70;;;;;;4992863;28;20026;-75
2022/02/16 03:00:11;;;;;;;4.65;2.60;;;6.70;90.40;;;;;;4981386;28;20041;-75
2022/02/16 03:02:38;;;;;;;5.65;2.25;;;6.80;90.40;;;;;;4982469;28;20031;-75
2022/02/16 03:05:05;;;;;;;3.70;2.15;;;6.80;90.10;;;;;;4996335;28;20081;-75
2022/02/16 03:07:31;;;;;;;5.53;2.55;;;6.70;90.20;;;;;;4981832;28;20039;-75
2022/02/16 03:09:57;;;;;;;5.05;1.90;;;6.60;90.60;;;;;;4999637;28;20038;-75
2022/02/16 03:12:22;;;;;;;4.55;2.40;;;6.50;90.70;;;;;;4978868;28;20484;-75
2022/02/16 03:14:48;;;;;;;4.63;1.92;;;6.60;90.80;;;;;;4983249;28;20034;-75
2022/02/16 03:17:15;;;;;;;6.28;2.08;;;6.70;90.40;;;;;;4983686;28;20026;-75
2022/02/16 03:19:41;;;;;;;4.25;2.15;;;6.70;90.50;;;;;;4983106;28;20133;-75
2022/02/16 03:22:07;;;;;;;4.70;2.10;;;6.70;90.50;;;;;;4987992;28;20022;-75
2022/02/16 03:24:34;;;;;;;4.00;2.25;;;6.70;90.50;;;;;;4984104;28;20045;-75
2022/02/16 03:27:03;;;;;;;3.97;2.03;;;6.70;90.50;;;;;;4982249;28;20041;-75
2022/02/16 03:29:46;;;;;;;3.45;2.05;;;6.70;90.40;;;;;;4980904;28;20514;-76
2022/02/16 03:32:12;;;;;;;5.20;2.40;;;6.70;90.60;;;;;;4981712;28;20037;-74
2022/02/16 03:34:38;;;;;;;3.60;1.95;;;6.70;90.70;;;;;;4982954;28;20457;-74
2022/02/16 03:37:04;;;;;;;1.98;1.70;;;6.70;90.70;;;;;;4978978;28;20026;-74
2022/02/16 03:39:32;;;;;;;7.88;2.00;;;6.60;90.80;;;;;;4996210;28;20030;-75
2022/02/16 03:41:59;;;;;;;2.33;1.70;;;6.50;90.90;;;;;;5006331;28;20034;-74
2022/02/16 03:44:25;;;;;;;5.50;2.15;;;6.50;91.10;;;;;;4985618;28;20068;-74
2022/02/16 03:46:53;;;;;;;3.80;1.50;;;6.50;91.10;;;;;;4982886;28;20030;-75
2022/02/16 03:49:21;;;;;;;4.50;1.90;;;6.50;91.00;;;;;;4980001;28;20058;-75
2022/02/16 03:51:49;;;;;;;2.45;1.50;;;6.60;91.00;;;;;;5000628;28;20022;-75
2022/02/16 03:54:15;;;;;;;5.18;1.75;;;6.60;90.90;;;;;;4991746;28;20033;-74
2022/02/16 03:56:41;;;;;;;3.15;1.65;;;6.70;90.70;;;;;;4986276;28;20532;-74
2022/02/16 03:59:07;;;;;;;5.40;2.08;;;6.80;90.50;;;;;;4984950;28;20041;-75
2022/02/16 04:01:38;;;;;;;2.65;1.27;;;6.80;90.50;;;;;;4993755;28;20652;-75
2022/02/16 04:04:04;;;;;;;2.38;1.38;;;6.80;90.50;;;;;;4992011;28;20041;-75
2022/02/16 04:06:30;;;;;;;2.95;1.58;;;6.80;90.60;;;;;;4985539;28;20862;-74
2022/02/16 04:08:56;;;;;;;3.90;1.80;;;6.80;90.60;;;;;;4986796;28;20034;-74
2022/02/16 04:11:26;;;;;;;9.20;2.15;;;6.90;90.60;;;;;;4985423;28;20061;-75
2022/02/16 04:13:53;;;;;;;4.15;2.03;;;6.90;90.60;;;;;;4988717;28;20072;-74
2022/02/16 04:16:19;;;;;;;5.15;1.80;;;6.90;90.60;;;;;;4985750;28;20026;-74
2022/02/16 04:18:45;;;;;;;5.32;1.92;;;7.00;90.30;;;;;;4987095;28;20073;-74
2022/02/16 04:21:11;;;;;;;3.75;1.42;;;7.10;90.20;;;;;;4987087;28;20800;-74
2022/02/16 04:23:45;;;;;;;4.28;1.50;;;7.00;90.20;;;;;;4984570;28;20041;-74
2022/02/16 04:26:11;;;;;;;2.03;1.30;;;7.00;90.10;;;;;;4985275;28;20026;-75
2022/02/16 04:28:39;;;;;;;4.25;1.60;;;6.90;90.40;;;;;;5000104;28;20045;-75
2022/02/16 04:31:04;;;;;;;4.57;1.88;;;6.90;90.50;;;;;;4985858;28;20088;-74
2022/02/16 04:33:30;;;;;;;5.45;1.85;;;7.00;90.20;;;;;;4988787;28;20031;-74
2022/02/16 04:35:56;;;;;;;2.50;1.40;;;7.00;90.50;;;;;;4985276;28;20022;-75
2022/02/16 04:38:23;;;;;;;4.38;1.35;;;7.00;90.20;;;;;;5001853;28;20034;-75
2022/02/16 04:40:48;;;;;;;7.68;2.00;;;7.00;90.40;;;;;;4984955;28;20364;-74
2022/02/16 04:43:14;;;;;;;5.65;2.05;;;7.00;90.30;;;;;;4991227;28;20042;-75
2022/02/16 04:45:40;;;;;;;5.35;1.60;;;7.00;90.20;;;;;;4999574;28;20030;-75
2022/02/16 04:48:10;;;;;;;2.25;1.27;;;7.00;90.40;;;;;;4985280;28;20088;-74
2022/02/16 04:50:36;;;;;;;3.33;1.48;;;7.00;90.30;;;;;;4984603;28;20038;-75
2022/02/16 04:53:01;;;;;;;3.13;1.45;;;7.00;90.40;;;;;;4985036;28;20030;-75
2022/02/16 04:55:32;;;;;;;1.75;1.50;;;7.10;90.10;;;;;;4998112;28;20022;-75
2022/02/16 04:58:04;;;;;;;1.75;1.15;;;7.10;90.30;;;;;;5001021;28;20030;-75
2022/02/16 05:00:31;;;;;;;4.57;1.40;;;7.10;90.20;;;;;;4981504;28;20031;-75
2022/02/16 05:03:07;;;;;;;6.25;1.40;;;7.10;90.00;;;;;;5010422;28;20061;-75
2022/02/16 05:05:34;;;;;;;2.67;1.63;;;7.20;90.20;;;;;;5001216;28;20042;-76
2022/02/16 05:08:00;;;;;;;4.25;1.67;;;7.20;90.10;;;;;;4995498;28;20026;-75
2022/02/16 05:10:26;;;;;;;1.58;1.27;;;7.30;90.00;;;;;;5003186;28;20084;-75
2022/02/16 05:12:54;;;;;;;3.20;1.42;;;7.30;89.50;;;;;;4984773;28;20030;-75
2022/02/16 05:15:20;;;;;;;3.60;1.60;;;7.20;89.80;;;;;;4983267;28;20030;-75
2022/02/16 05:17:46;;;;;;;2.85;1.42;;;7.30;90.00;;;;;;4991465;28;20030;-75
2022/02/16 05:20:37;;;;;;;4.10;1.10;;;7.30;89.20;;;;;;4985017;28;20054;-74
2022/02/16 05:23:06;;;;;;;1.30;1.20;;;7.30;89.30;;;;;;4999564;28;20062;-75
2022/02/16 05:25:32;;;;;;;2.03;1.30;;;7.20;90.00;;;;;;4986634;28;20506;-75
2022/02/16 05:28:02;;;;;;;2.03;1.50;;;7.30;89.90;;;;;;4983659;28;20037;-75
2022/02/16 05:30:28;;;;;;;2.72;1.50;;;7.30;89.60;;;;;;4997568;28;20035;-75
2022/02/16 05:32:54;;;;;;;2.80;1.58;;;7.40;89.30;;;;;;4970246;28;20038;-72
2022/02/16 05:35:20;;;;;;;4.13;2.00;;;7.30;88.90;;;;;;4982436;28;20033;-75
2022/02/16 05:37:46;;;;;;;2.08;1.45;;;7.30;89.40;;;;;;4990218;28;20134;-72
2022/02/16 05:40:12;;;;;;;3.55;2.10;;;7.30;89.60;;;;;;4975911;28;20049;-73
2022/02/16 05:42:42;;;;;;;3.83;1.40;;;7.30;90.10;;;;;;4979688;28;20030;-73
2022/02/16 05:45:09;;;;;;;6.78;1.70;;;7.30;90.10;;;;;;4994548;28;20108;-73
2022/02/16 05:47:35;;;;;;;7.13;1.88;;;7.30;90.40;;;;;;4982737;28;20466;-72
2022/02/16 05:50:00;;;;;;;2.00;1.48;;;7.30;90.40;;;;;;4978453;28;20030;-72
2022/02/16 05:52:26;;;;;;;2.80;1.30;;;7.40;90.30;;;;;;4986150;28;20046;-72
2022/02/16 05:54:52;;;;;;;3.33;1.60;;;7.40;90.30;;;;;;4994435;28;20125;-75
2022/02/16 05:57:18;;;;;;;2.17;1.98;;;7.40;90.40;;;;;;4978895;28;20027;-73
2022/02/16 05:59:44;;;;;;;2.40;1.48;;;7.40;90.40;;;;;;4982498;28;20056;-74
2022/02/16 06:02:10;;;;;;;4.63;1.70;;;7.30;90.50;;;;;;4985202;28;20433;-74
2022/02/16 06:04:37;;;;;;;8.98;3.60;;;7.40;90.70;;;;;;4981714;28;20129;-74
2022/02/16 06:07:03;;;;;;;2.97;1.58;;;7.40;90.70;;;;;;4973109;28;20391;-74
2022/02/16 06:09:29;;;;;;;3.17;1.92;;;7.40;90.30;;;;;;4977439;28;20027;-74
2022/02/16 06:11:55;;;;;;;1.90;1.55;;;7.30;90.70;;;;;;4991096;28;20026;-73
2022/02/16 06:14:24;;;;;;;4.00;1.77;;;7.30;90.80;;;;;;4982066;28;20030;-73
2022/02/16 06:16:58;;;;;;;2.70;1.58;;;7.30;90.60;;;;;;4986127;28;20108;-72
2022/02/16 06:19:23;;;;;;;6.25;1.67;;;7.30;90.90;;;;;;4986867;28;20459;-65
2022/02/16 06:21:50;;;;;;;6.28;1.63;;;7.20;91.10;;;;;;4990708;28;20030;-67
2022/02/16 06:24:16;;;;;;;3.78;1.65;;;7.20;91.10;;;;;;4982440;28;20118;-68
2022/02/16 06:26:42;;;;;;;2.30;1.60;;;7.20;91.20;;;;;;4991615;28;20116;-72
2022/02/16 06:29:09;;;;;;;2.85;1.48;;;7.30;91.00;;;;;;4988084;28;20026;-72
2022/02/16 06:32:04;;;;;;;2.28;1.60;;;7.20;91.10;;;;;;4974446;28;20030;-75
2022/02/16 06:34:30;;;;;;;1.63;1.48;;;7.30;90.90;;;;;;4997738;28;20077;-74
2022/02/16 06:36:56;;;;;;;2.00;1.40;;;7.30;91.00;;;;;;4990969;28;20026;-77
2022/02/16 06:39:22;;;;;;;2.58;1.42;;;7.10;91.40;;;;;;4982191;28;20042;-74
2022/02/16 06:41:47;;;;;;;2.15;1.40;;;7.10;91.50;;;;;;4992806;28;20458;-74
2022/02/16 06:44:13;;;;;;;1.65;1.35;;;7.00;91.60;;;;;;4981215;28;20117;-74
2022/02/16 06:46:39;;;;;;;2.90;1.35;;;6.90;92.00;;;;;;4982380;28;20047;-75
2022/02/16 06:49:05;;;;;;;1.73;1.35;;;6.90;92.10;;;;;;4999947;28;20392;-78
2022/02/16 06:51:33;;;;;;;3.13;1.38;;;6.90;92.30;;;;;;4984302;28;20091;-75
2022/02/16 06:53:59;;;;;;;1.30;1.20;;;6.90;92.30;;;;;;4991490;28;20030;-73
2022/02/16 06:56:28;;;;;;;3.55;1.67;;;7.00;92.30;;;;;;4990366;28;20027;-71
2022/02/16 06:59:12;;;;;;;;;;;7.00;92.10;;;;;;4975431;28;20049;-74
2022/02/16 07:01:39;;;;;;;2.97;1.65;;;7.10;92.10;;;;;;4995100;28;20306;-72
2022/02/16 07:04:05;;;;;;;2.20;1.20;;;7.10;92.10;;;;;;4982241;28;20038;-72
2022/02/16 07:06:32;;;;;;;2.45;1.35;;;7.10;91.80;;;;;;5000932;28;20035;-74
2022/02/16 07:09:04;;;;;;;2.40;0.95;;;7.10;92.00;;;;;;4974788;28;20040;-71
2022/02/16 07:11:30;;;;;;;2.05;1.33;;;7.10;91.90;;;;;;4988238;28;20112;-71
2022/02/16 07:13:56;;;;;;;3.05;1.08;;;7.10;92.00;;;;;;4972728;28;20030;-72
2022/02/16 07:16:22;;;;;;;1.42;1.10;;;7.10;92.00;;;;;;4980012;28;20022;-70
2022/02/16 07:18:48;;;;;;;1.40;0.93;;;7.00;92.20;;;;;;4977949;28;20030;-70
2022/02/16 07:21:26;;;;;;;2.67;0.77;;;7.10;92.30;;;;;;4982798;28;20479;-70
2022/02/16 07:23:54;;;;;;;1.52;1.40;;;7.10;92.30;;;;;;4982516;28;20033;-70
2022/02/16 07:26:21;;;;;;;1.05;0.80;;;7.00;92.40;;;;;;4980348;28;20026;-70
2022/02/16 07:28:47;;;;;;;1.65;1.10;;;7.10;92.30;;;;;;4979335;28;20026;-70
2022/02/16 07:31:15;;;;;;;1.17;1.08;;;7.10;92.40;;;;;;4988978;28;20032;-70
2022/02/16 07:33:41;;;;;;;1.90;1.10;;;7.00;92.10;;;;;;4984121;28;20038;-69
2022/02/16 07:36:07;;;;;;;1.15;0.80;;;7.00;92.00;;;;;;4992632;28;20777;-71
2022/02/16 07:38:33;;;;;;;1.45;1.33;;;6.90;92.40;;;;;;4988696;28;20490;-71
2022/02/16 07:41:00;;;;;;;1.17;1.10;;;7.00;92.40;;;;;;4980892;28;20041;-72
2022/02/16 07:43:30;;;;;;;1.13;0.98;;;7.20;92.40;;;;;;4979131;28;20045;-70
2022/02/16 07:45:58;;;;;;;1.42;0.60;;;7.20;92.20;;;;;;4981171;28;20042;-72
2022/02/16 07:48:26;;;;;;;1.25;0.80;;;7.30;92.10;;;;;;4978326;28;20086;-71
2022/02/16 07:50:53;;;;;;;1.00;0.82;;;7.30;92.20;;;;;;4990993;28;20091;-71
2022/02/16 07:53:28;;;;;;;1.75;0.90;;;7.40;92.20;;;;;;4982680;28;20035;-74
2022/02/16 07:55:55;;;;;;;1.58;0.80;;;7.20;91.70;;;;;;4978445;28;20034;-73
2022/02/16 07:58:23;;;;;;;1.40;0.60;;;7.00;92.50;;;;;;4981363;28;20870;-72
2022/02/16 08:00:48;;;;;;;0.75;0.60;;;7.10;92.50;;;;;;4983246;28;20438;-72
2022/02/16 08:03:18;;;;;;;0.73;0.73;;;7.10;92.70;;;;;;4970409;28;20054;-72
2022/02/16 08:05:45;;;;;;;1.15;0.70;;;7.10;92.40;;;;;;4990095;28;20035;-72
2022/02/16 08:08:17;;;;;;;0.77;0.77;;;7.10;92.20;;;;;;4968811;28;20026;-72
2022/02/16 08:10:48;;;;;;;1.30;0.98;;;7.10;92.00;;;;;;4973374;28;20114;-72
2022/02/16 08:13:16;;;;;;;1.00;0.60;;;7.20;92.60;;;;;;4977902;28;20133;-74
2022/02/16 08:15:49;;;;;;;1.05;0.70;;;7.10;92.20;;;;;;4979256;28;20030;-69
2022/02/16 08:18:15;;;;;;;1.50;0.70;;;7.20;92.30;;;;;;4982056;28;20512;-71
2022/02/16 08:20:44;;;;;;;0.80;0.77;;;7.30;92.20;;;;;;4988461;28;20144;-71
2022/02/16 08:23:15;;;;;;;1.58;0.82;;;7.40;92.20;;;;;;4982289;28;20026;-72
2022/02/16 08:25:42;;;;;;;0.85;0.47;;;7.50;91.90;;;;;;4983604;28;20767;-70
2022/02/16 08:28:12;;;;;;;0.82;0.60;;;7.50;91.60;;;;;;4985018;28;20869;-72
2022/02/16 08:30:38;;;;;;;0.65;0.60;;;7.50;91.40;;;;;;4979484;28;20038;-72
2022/02/16 08:33:11;;;;;;;0.45;0.45;;;7.50;91.10;;;;;;4982147;28;20058;-72
2022/02/16 08:35:43;;;;;;;0.90;0.57;;;7.50;91.20;;;;;;4998757;28;20119;-69
2022/02/16 08:38:08;;;;;;;2.13;0.57;;;7.50;91.00;;;;;;4990760;28;20089;-72
2022/02/16 08:40:34;;;;;;;0.43;0.43;;;7.50;91.20;;;;;;4984461;28;20039;-74
2022/02/16 08:43:00;;;;;;;1.20;0.60;;;7.70;91.10;;;;;;4984505;28;20030;-73
2022/02/16 08:45:25;;;;;;;0.88;0.47;;;7.70;90.40;;;;;;4980283;28;20034;-73
2022/02/16 08:47:51;;;;;;;0.77;0.50;;;7.60;90.60;;;;;;4990996;28;20038;-71
2022/02/16 08:50:17;;;;;;;2.03;0.70;;;7.70;90.80;;;;;;4987228;28;20035;-68
2022/02/16 08:52:43;;;;;;;0.73;0.47;;;7.80;90.90;;;;;;4986460;28;20038;-73
2022/02/16 08:55:09;;;;;;;0.98;0.43;;;7.80;90.50;;;;;;4982657;28;20037;-73
2022/02/16 08:57:36;;;;;;;2.05;0.57;;;7.80;90.60;;;;;;4985183;28;20041;-71
2022/02/16 09:00:04;;;;;;;0.82;0.45;;;7.70;90.60;;;;;;4981735;28;20434;-72
2022/02/16 09:02:30;;;;;;;0.80;0.60;;;7.80;90.70;;;;;;4989442;28;20085;-76
2022/02/16 09:04:56;;;;;;;0.75;0.45;;;7.70;90.70;;;;;;4997114;28;20022;-74
2022/02/16 09:07:30;;;;;;;0.95;0.50;;;7.70;90.70;;;;;;4986115;28;20056;-74
2022/02/16 09:09:57;;;;;;;2.50;0.55;;;7.70;90.80;;;;;;4988344;28;20026;-74
2022/02/16 09:12:23;;;;;;;0.65;0.52;;;7.80;91.00;;;;;;4992210;28;20049;-72
2022/02/16 09:14:49;;;;;;;9.43;6.00;;;7.80;90.70;;;;;;4985969;28;20145;-72
2022/02/16 09:17:15;;;;;;;4.65;2.70;;;7.80;90.90;;;;;;4984027;28;20038;-72
2022/02/16 09:19:41;;;;;;;2.80;1.55;;;7.80;91.20;;;;;;4987121;28;20042;-71
2022/02/16 09:22:08;;;;;;;1.00;0.73;;;7.90;91.40;;;;;;4983310;28;20039;-71
2022/02/16 09:24:34;;;;;;;2.38;1.50;;;7.90;91.00;;;;;;4984082;28;20279;-73
2022/02/16 09:27:00;;;;;;;0.75;0.50;;;7.90;91.20;;;;;;4973362;28;20506;-71
2022/02/16 09:29:26;;;;;;;1.88;0.85;;;7.90;91.50;;;;;;4991378;28;20038;-71
2022/02/16 09:31:53;;;;;;;1.38;0.60;;;7.80;91.20;;;;;;4986216;28;20491;-71
2022/02/16 09:34:19;;;;;;;1.20;1.00;;;7.70;91.70;;;;;;4982656;28;20120;-72
2022/02/16 09:36:45;;;;;;;1.88;0.73;;;7.60;92.00;;;;;;4979555;28;20732;-73
2022/02/16 09:39:11;;;;;;;0.77;0.50;;;7.50;92.70;;;;;;4988064;28;20023;-73
2022/02/16 09:41:37;;;;;;;1.00;0.70;;;7.50;92.50;;;;;;4986702;28;20070;-73
2022/02/16 09:44:04;;;;;;;1.45;0.40;;;7.40;93.00;;;;;;4975891;28;20073;-72
2022/02/16 09:46:30;;;;;;;1.70;0.57;;;7.40;93.00;;;;;;4979927;28;20511;-73
2022/02/16 09:48:57;;;;;;;4.22;0.60;;;7.40;93.20;;;;;;4983478;28;20060;-73
2022/02/16 09:51:23;;;;;;;0.75;0.57;;;7.30;93.50;;;;;;4988185;28;20031;-72
2022/02/16 09:53:49;;;;;;;2.33;0.68;;;7.40;93.50;;;;;;4973965;28;20030;-78
2022/02/16 09:56:15;;;;;;;2.33;1.00;;;7.40;93.40;;;;;;4993608;28;20033;-79
2022/02/16 09:58:40;;;;;;;0.68;0.65;;;7.40;93.50;;;;;;4985078;28;20536;-82
2022/02/16 10:01:11;;;;;;;7.25;2.90;;;7.50;93.50;;;;;;4985711;28;20145;-79
2022/02/16 10:03:38;;;;;;;2.33;0.85;;;7.60;93.50;;;;;;4992614;28;20041;-79
2022/02/16 10:06:04;;;;;;;0.57;0.50;;;7.60;93.40;;;;;;4964671;28;20113;-84
2022/02/16 10:08:47;;;;;;;1.20;0.60;;;7.50;93.20;;;;;;4983728;28;20121;-83
2022/02/16 10:11:15;;;;;;;0.73;0.60;;;7.30;93.80;;;;;;4980554;28;20515;-76
2022/02/16 10:13:43;;;;;;;5.10;2.30;;;7.40;93.80;;;;;;4983032;28;20115;-75
2022/02/16 10:16:09;;;;;;;0.73;0.60;;;7.50;94.00;;;;;;4983414;28;20045;-74
2022/02/16 10:19:00;;;;;;;3.53;0.80;;;7.60;93.70;;;;;;4979407;28;20042;-75
2022/02/16 10:21:25;;;;;;;3.10;1.35;;;7.60;93.60;;;;;;4980202;28;20030;-75
2022/02/16 10:23:52;;;;;;;1.83;1.02;;;7.60;93.40;;;;;;4980856;28;20446;-75
2022/02/16 10:26:18;;;;;;;1.80;0.98;;;7.40;93.60;;;;;;4979697;28;20037;-73
2022/02/16 10:28:52;;;;;;;1.63;1.25;;;7.40;94.10;;;;;;4975472;28;20107;-69
2022/02/16 10:31:18;;;;;;;2.25;1.20;;;7.30;94.00;;;;;;4980443;28;20038;-77
2022/02/16 10:33:46;;;;;;;1.70;0.85;;;7.30;94.70;;;;;;4977132;28;20042;-87
2022/02/16 10:36:18;;;;;;;2.05;0.90;;;7.30;94.20;;;;;;4980099;28;20030;-70
2022/02/16 10:39:00;;;;;;;2.00;0.80;;;7.30;94.70;;;;;;4985230;28;20836;-70
2022/02/16 10:41:39;;;;;;;0.93;0.50;;;7.30;94.30;;;;;;4978767;28;20111;-69
2022/02/16 10:44:19;;;;;;;2.53;1.23;;;7.20;94.70;;;;;;4978081;28;20084;-70
2022/02/16 10:47:01;;;;;;;2.15;0.90;;;7.30;94.90;;;;;;4989805;28;20149;-71
2022/02/16 10:49:28;;;;;;;1.10;0.90;;;7.50;94.60;;;;;;4986079;28;20499;-70
2022/02/16 10:52:14;;;;;;;2.75;0.70;;;7.50;94.30;;;;;;4985950;28;20038;-70
2022/02/16 10:54:59;;;;;;;1.70;0.93;;;7.60;94.00;;;;;;4986568;28;20052;-69
2022/02/16 10:57:26;;;;;;;3.50;0.82;;;7.70;94.20;;;;;;4988776;28;20310;-72
2022/02/16 10:59:54;;;;;;;1.65;0.75;;;7.70;94.20;;;;;;4974515;28;20803;-71
2022/02/16 11:02:23;;;;;;;3.17;0.85;;;7.80;93.90;;;;;;4977285;28;20072;-70
2022/02/16 11:04:51;;;;;;;1.85;0.60;;;7.80;93.60;;;;;;4973367;28;20030;-70
2022/02/16 11:07:23;;;;;;;0.65;0.65;;;7.80;94.00;;;;;;4970386;28;20495;-70
2022/02/16 11:09:51;;;;;;;1.95;0.50;;;7.90;93.80;;;;;;4985409;28;20042;-70
2022/02/16 11:12:17;;;;;;;0.77;0.77;;;8.00;93.60;;;;;;4970833;28;20768;-69
2022/02/16 11:14:44;;;;;;;2.30;0.70;;;7.90;93.50;;;;;;4980892;28;20035;-71
2022/02/16 11:17:11;;;;;;;1.60;0.60;;;7.90;94.00;;;;;;4976438;28;20030;-69
2022/02/16 11:19:40;;;;;;;1.33;0.70;;;7.80;93.90;;;;;;4988371;28;20034;-70
2022/02/16 11:22:13;;;;;;;1.13;0.65;;;7.90;94.00;;;;;;4983286;28;20034;-67
2022/02/16 11:24:41;;;;;;;0.68;0.50;;;7.90;93.80;;;;;;4987429;28;20045;-70
2022/02/16 11:27:29;;;;;;;1.20;0.70;;;7.90;93.80;;;;;;4979290;28;20497;-70
2022/02/16 11:30:05;;;;;;;0.65;0.65;;;8.00;94.20;;;;;;4982939;28;20038;-71
2022/02/16 11:32:32;;;;;;;2.13;1.00;;;8.10;93.90;;;;;;4977063;28;20037;-71
2022/02/16 11:35:21;;;;;;;1.67;0.90;;;8.00;94.40;;;;;;4975452;28;20089;-70
2022/02/16 11:38:05;;;;;;;0.55;0.55;;;7.90;94.60;;;;;;4986436;28;20034;-68
2022/02/16 11:40:38;;;;;;;1.30;0.85;;;7.90;95.00;;;;;;4983056;28;20033;-70
2022/02/16 11:43:04;;;;;;;1.95;0.90;;;8.00;94.90;;;;;;4977427;28;20586;-71
2022/02/16 11:45:46;;;;;;;1.95;0.70;;;8.00;94.60;;;;;;4981170;28;20038;-68
2022/02/16 11:48:36;;;;;;;0.70;0.70;;;7.90;95.00;;;;;;4985661;28;20065;-67
2022/02/16 11:51:24;;;;;;;1.13;0.82;;;7.80;95.40;;;;;;4984269;28;20034;-65
2022/02/16 11:53:53;;;;;;;0.60;0.60;;;7.80;95.30;;;;;;4980414;28;20038;-68
2022/02/16 11:56:23;;;;;;;0.75;0.63;;;7.80;95.60;;;;;;4975966;28;20568;-68
2022/02/16 11:59:16;;;;;;;2.30;0.80;;;7.90;95.80;;;;;;4980958;28;20042;-68
2022/02/16 12:02:06;;;;;;;0.73;0.70;;;8.00;95.70;;;;;;4978640;28;20034;-67
2022/02/16 12:04:45;;;;;;;3.42;0.80;;;8.00;95.50;;;;;;4979522;28;20042;-68
2022/02/16 12:07:25;;;;;;;0.75;0.70;;;8.10;95.50;;;;;;4977911;28;20026;-68
2022/02/16 12:10:18;;;;;;;1.35;0.80;;;8.30;95.40;;;;;;4980773;28;20038;-71
2022/02/16 12:12:46;;;;;;;2.70;0.80;;;8.30;94.70;;;;;;4988468;28;20050;-70
2022/02/16 12:15:12;;;;;;;1.08;0.95;;;8.20;95.00;;;;;;4996832;28;20030;-70
2022/02/16 12:17:39;;;;;;;1.02;0.70;;;8.30;95.30;;;;;;4984728;28;20044;-69
2022/02/16 12:20:06;;;;;;;1.00;0.65;;;8.50;94.70;;;;;;4976100;28;20388;-70
2022/02/16 12:22:36;;;;;;;1.77;0.70;;;8.40;94.90;;;;;;4988536;28;20101;-70
2022/02/16 12:25:14;;;;;;;0.70;0.70;;;8.40;94.90;;;;;;4981826;28;20075;-70
2022/02/16 12:27:44;;;;;;;1.88;1.05;;;8.50;94.70;;;;;;4983191;28;20034;-69
2022/02/16 12:30:10;;;;;;;2.13;1.10;;;8.60;95.00;;;;;;4977962;28;20083;-69
2022/02/16 12:32:37;;;;;;;2.17;0.75;;;8.80;94.60;;;;;;4981488;28;20515;-70
2022/02/16 12:35:06;;;;;;;0.88;0.65;;;8.80;94.10;;;;;;4986780;28;20073;-68
2022/02/16 12:37:31;;;;;;;0.52;0.50;;;9.00;94.00;;;;;;4985944;28;20497;-69
2022/02/16 12:40:08;;;;;;;1.17;0.60;;;9.10;93.60;;;;;;4984770;28;20028;-72
2022/02/16 12:42:41;;;;;;;0.70;0.70;;;9.20;93.50;;;;;;4982515;28;20121;-70
2022/02/16 12:45:08;;;;;;;2.05;0.70;;;9.30;93.40;;;;;;4984912;28;20038;-68
2022/02/16 12:47:35;;;;;;;0.63;0.63;;;9.40;92.70;;;;;;4978546;28;20073;-69
2022/02/16 12:50:12;;;;;;;1.58;0.82;;;9.30;93.00;;;;;;4980739;28;20070;-71
2022/02/16 12:52:38;;;;;;;1.35;0.90;;;9.30;93.10;;;;;;4977596;28;20109;-70
2022/02/16 12:55:05;;;;;;;0.50;0.50;;;9.40;92.70;;;;;;4978845;28;20454;-72
2022/02/16 12:57:32;;;;;;;0.80;0.80;;;9.30;92.60;;;;;;4976272;28;20106;-72
2022/02/16 13:02:48;;;;;;;1.45;0.60;;;9.20;93.00;;;;;;4989075;28;20042;-70
2022/02/16 13:05:18;;;;;;;1.95;0.70;;;9.20;93.00;;;;;;4977076;28;20030;-70
2022/02/16 13:07:44;;;;;;;1.90;0.68;;;9.30;93.30;;;;;;4984772;28;20548;-70
2022/02/16 13:10:10;;;;;;;0.73;0.70;;;9.40;92.80;;;;;;4977232;28;20058;-72